createdAt,value
2017-09-26T00:00:14.247Z,0
2017-09-26T00:00:54.812Z,0
2017-09-26T00:01:35.365Z,0
2017-09-26T00:02:15.921Z,0
2017-09-26T00:02:56.494Z,0
2017-09-26T00:03:37.073Z,0
2017-09-26T00:04:17.633Z,0
2017-09-26T00:04:58.206Z,0
2017-09-26T00:05:38.768Z,0
2017-09-26T00:06:19.322Z,0
2017-09-26T00:06:59.894Z,0
2017-09-26T00:07:40.449Z,0
2017-09-26T00:08:21.016Z,0
2017-09-26T00:09:01.574Z,0
2017-09-26T00:09:42.132Z,0
2017-09-26T00:10:22.688Z,0
2017-09-26T00:11:03.242Z,0
2017-09-26T00:11:43.824Z,0
2017-09-26T00:12:24.414Z,0
2017-09-26T00:13:04.973Z,0
2017-09-26T00:13:45.529Z,0
2017-09-26T00:14:26.099Z,0
2017-09-26T00:15:06.682Z,0
2017-09-26T00:15:47.234Z,0
2017-09-26T00:16:27.797Z,0
2017-09-26T00:17:08.366Z,0
2017-09-26T00:17:48.938Z,0
2017-09-26T00:18:29.496Z,0
2017-09-26T00:19:10.066Z,0
2017-09-26T00:19:50.629Z,0
2017-09-26T00:20:31.213Z,0
2017-09-26T00:21:11.790Z,0
2017-09-26T00:21:52.369Z,0
2017-09-26T00:22:47.472Z,0
2017-09-26T00:23:28.049Z,0
2017-09-26T00:24:08.647Z,0
2017-09-26T00:24:49.216Z,0
2017-09-26T00:25:29.774Z,0
2017-09-26T00:26:10.362Z,0
2017-09-26T00:26:50.987Z,0
2017-09-26T00:27:31.541Z,0
2017-09-26T00:28:12.128Z,0
2017-09-26T00:28:52.694Z,0
2017-09-26T00:29:33.256Z,0
2017-09-26T00:30:13.818Z,0
2017-09-26T00:30:54.386Z,0
2017-09-26T00:31:34.946Z,0
2017-09-26T00:32:15.510Z,0
2017-09-26T00:32:56.083Z,0
2017-09-26T00:33:36.648Z,0
2017-09-26T00:34:17.217Z,0
2017-09-26T00:34:57.774Z,0
2017-09-26T00:35:38.343Z,0
2017-09-26T00:36:18.902Z,0
2017-09-26T00:36:59.461Z,0
2017-09-26T00:37:40.020Z,0
2017-09-26T00:38:20.578Z,0
2017-09-26T00:39:01.130Z,0
2017-09-26T00:39:41.711Z,0
2017-09-26T00:40:22.268Z,0
2017-09-26T00:41:02.852Z,0
2017-09-26T00:41:43.411Z,0
2017-09-26T00:42:23.983Z,0
2017-09-26T00:43:04.537Z,0
2017-09-26T00:43:45.124Z,0
2017-09-26T00:44:25.688Z,0
2017-09-26T00:45:06.260Z,0
2017-09-26T00:45:46.827Z,0
2017-09-26T00:46:27.411Z,0
2017-09-26T00:47:07.967Z,0
2017-09-26T00:47:48.529Z,0
2017-09-26T00:48:29.127Z,0
2017-09-26T00:49:09.686Z,0
2017-09-26T00:49:50.240Z,0
2017-09-26T00:50:30.791Z,0
2017-09-26T00:51:11.353Z,0
2017-09-26T00:51:51.911Z,0
2017-09-26T00:52:32.493Z,0
2017-09-26T00:53:13.095Z,0
2017-09-26T00:53:53.690Z,0
2017-09-26T00:54:34.254Z,0
2017-09-26T00:55:14.815Z,0
2017-09-26T00:55:55.370Z,0
2017-09-26T00:56:35.929Z,0
2017-09-26T00:57:16.494Z,0
2017-09-26T00:57:57.054Z,0
2017-09-26T00:58:37.622Z,0
2017-09-26T00:59:18.181Z,0
2017-09-26T00:59:58.748Z,0
2017-09-26T01:00:39.300Z,0
2017-09-26T01:01:19.847Z,0
2017-09-26T01:02:00.414Z,0
2017-09-26T01:02:41.017Z,0
2017-09-26T01:03:21.588Z,0
2017-09-26T01:04:02.153Z,0
2017-09-26T01:04:42.739Z,0
2017-09-26T01:05:23.305Z,0
2017-09-26T01:06:03.859Z,0
2017-09-26T01:06:44.443Z,0
2017-09-26T01:07:25.004Z,0
2017-09-26T01:08:05.597Z,0
2017-09-26T01:08:46.154Z,0
2017-09-26T01:09:26.775Z,0
2017-09-26T01:10:07.387Z,0
2017-09-26T01:10:47.963Z,0
2017-09-26T01:11:28.526Z,0
2017-09-26T01:12:09.108Z,0
2017-09-26T01:12:49.677Z,0
2017-09-26T01:13:30.264Z,0
2017-09-26T01:14:10.881Z,0
2017-09-26T01:14:51.452Z,0
2017-09-26T01:15:32.023Z,0
2017-09-26T01:16:12.587Z,0
2017-09-26T01:16:53.151Z,0
2017-09-26T01:17:33.755Z,0
2017-09-26T01:18:14.356Z,0
2017-09-26T01:18:54.930Z,0
2017-09-26T01:19:35.880Z,0
2017-09-26T01:20:16.626Z,0
2017-09-26T01:20:57.200Z,0
2017-09-26T01:21:37.779Z,0
2017-09-26T01:22:18.367Z,0
2017-09-26T01:22:58.935Z,0
2017-09-26T01:23:39.503Z,0
2017-09-26T01:24:20.071Z,0
2017-09-26T01:25:00.681Z,0
2017-09-26T01:25:41.366Z,0
2017-09-26T01:26:21.990Z,0
2017-09-26T01:27:02.554Z,0
2017-09-26T01:27:43.113Z,0
2017-09-26T01:28:23.673Z,0
2017-09-26T01:29:04.272Z,0
2017-09-26T01:29:44.871Z,0
2017-09-26T01:30:25.428Z,0
2017-09-26T01:31:06.045Z,0
2017-09-26T01:31:46.609Z,0
2017-09-26T01:32:27.198Z,0
2017-09-26T01:33:07.783Z,0
2017-09-26T01:33:48.383Z,0
2017-09-26T01:34:28.955Z,0
2017-09-26T01:35:09.553Z,0
2017-09-26T01:35:50.125Z,0
2017-09-26T01:36:30.705Z,0
2017-09-26T01:37:11.268Z,0
2017-09-26T01:37:51.828Z,0
2017-09-26T01:38:32.408Z,0
2017-09-26T01:39:12.981Z,0
2017-09-26T01:39:53.589Z,0
2017-09-26T01:40:34.172Z,0
2017-09-26T01:41:14.737Z,0
2017-09-26T01:41:55.392Z,0
2017-09-26T01:42:36.000Z,0
2017-09-26T01:43:16.568Z,0
2017-09-26T01:43:57.151Z,0
2017-09-26T01:44:37.747Z,0
2017-09-26T01:45:18.327Z,0
2017-09-26T01:45:58.891Z,0
2017-09-26T01:46:39.465Z,0
2017-09-26T01:47:20.041Z,0
2017-09-26T01:48:00.666Z,0
2017-09-26T01:48:41.282Z,0
2017-09-26T01:49:21.835Z,0
2017-09-26T01:50:02.372Z,0
2017-09-26T01:50:42.926Z,0
2017-09-26T01:51:23.486Z,0
2017-09-26T01:52:04.054Z,0
2017-09-26T01:52:44.620Z,0
2017-09-26T01:53:25.176Z,0
2017-09-26T01:54:05.745Z,0
2017-09-26T01:54:46.303Z,0
2017-09-26T01:55:26.880Z,0
2017-09-26T01:56:07.449Z,0
2017-09-26T01:56:48.010Z,0
2017-09-26T01:57:28.566Z,0
2017-09-26T01:58:09.136Z,0
2017-09-26T01:58:49.695Z,0
2017-09-26T01:59:30.296Z,0
2017-09-26T02:00:10.856Z,0
2017-09-26T02:00:51.411Z,0
2017-09-26T02:01:31.973Z,0
2017-09-26T02:02:12.530Z,0
2017-09-26T02:02:53.118Z,0
2017-09-26T02:03:33.676Z,0
2017-09-26T02:04:14.233Z,0
2017-09-26T02:04:54.794Z,0
2017-09-26T02:05:35.360Z,0
2017-09-26T02:06:15.934Z,0
2017-09-26T02:06:56.481Z,0
2017-09-26T02:07:37.042Z,0
2017-09-26T02:08:17.592Z,0
2017-09-26T02:08:58.168Z,0
2017-09-26T02:09:38.725Z,0
2017-09-26T02:10:19.281Z,0
2017-09-26T02:10:59.870Z,0
2017-09-26T02:11:40.432Z,0
2017-09-26T02:12:20.986Z,0
2017-09-26T02:13:01.552Z,0
2017-09-26T02:13:42.112Z,0
2017-09-26T02:14:22.723Z,0
2017-09-26T02:15:03.287Z,0
2017-09-26T02:15:43.845Z,0
2017-09-26T02:16:24.412Z,0
2017-09-26T02:17:04.964Z,0
2017-09-26T02:17:45.515Z,0
2017-09-26T02:18:26.075Z,0
2017-09-26T02:19:06.638Z,0
2017-09-26T02:19:47.194Z,0
2017-09-26T02:20:27.855Z,0
2017-09-26T02:21:08.395Z,0
2017-09-26T02:21:48.953Z,0
2017-09-26T02:22:29.534Z,0
2017-09-26T02:23:10.092Z,0
2017-09-26T02:23:50.664Z,0
2017-09-26T02:24:31.226Z,0
2017-09-26T02:25:11.811Z,0
2017-09-26T02:25:52.375Z,0
2017-09-26T02:26:32.939Z,0
2017-09-26T02:27:13.493Z,0
2017-09-26T02:27:54.061Z,0
2017-09-26T02:28:34.650Z,0
2017-09-26T02:29:15.209Z,0
2017-09-26T02:29:55.766Z,0
2017-09-26T02:30:36.325Z,0
2017-09-26T02:31:16.881Z,0
2017-09-26T02:31:57.443Z,0
2017-09-26T02:32:37.999Z,0
2017-09-26T02:33:18.563Z,0
2017-09-26T02:33:59.119Z,0
2017-09-26T02:34:39.698Z,0
2017-09-26T02:35:20.282Z,0
2017-09-26T02:36:00.840Z,0
2017-09-26T02:36:41.404Z,0
2017-09-26T02:37:21.972Z,0
2017-09-26T02:38:02.541Z,0
2017-09-26T02:38:43.108Z,0
2017-09-26T02:39:23.672Z,0
2017-09-26T02:40:04.248Z,0
2017-09-26T02:40:44.817Z,0
2017-09-26T02:41:25.380Z,0
2017-09-26T02:42:05.954Z,0
2017-09-26T02:42:46.516Z,0
2017-09-26T02:43:27.086Z,0
2017-09-26T02:44:07.661Z,0
2017-09-26T02:44:48.230Z,0
2017-09-26T02:45:28.783Z,0
2017-09-26T02:46:09.359Z,0
2017-09-26T02:46:49.914Z,0
2017-09-26T02:47:30.483Z,0
2017-09-26T02:48:11.045Z,0
2017-09-26T02:48:51.610Z,0
2017-09-26T02:49:32.176Z,0
2017-09-26T02:50:12.733Z,0
2017-09-26T02:50:53.295Z,0
2017-09-26T02:51:33.873Z,0
2017-09-26T02:52:14.462Z,0
2017-09-26T02:52:55.047Z,0
2017-09-26T02:53:35.601Z,0
2017-09-26T02:54:16.167Z,0
2017-09-26T02:54:56.741Z,0
2017-09-26T02:55:37.294Z,0
2017-09-26T02:56:17.881Z,0
2017-09-26T02:56:58.441Z,0
2017-09-26T02:57:39.005Z,0
2017-09-26T02:58:19.579Z,0
2017-09-26T02:59:00.130Z,0
2017-09-26T02:59:40.698Z,0
2017-09-26T03:00:21.266Z,0
2017-09-26T03:01:01.842Z,0
2017-09-26T03:01:42.400Z,0
2017-09-26T03:02:22.962Z,0
2017-09-26T03:03:03.531Z,0
2017-09-26T03:03:44.083Z,0
2017-09-26T03:04:24.645Z,0
2017-09-26T03:05:05.226Z,0
2017-09-26T03:05:45.800Z,0
2017-09-26T03:06:26.363Z,0
2017-09-26T03:07:06.940Z,0
2017-09-26T03:07:47.530Z,0
2017-09-26T03:08:28.094Z,0
2017-09-26T03:09:08.670Z,0
2017-09-26T03:09:49.255Z,0
2017-09-26T03:10:29.868Z,0
2017-09-26T03:11:10.428Z,0
2017-09-26T03:11:50.989Z,0
2017-09-26T03:12:31.560Z,0
2017-09-26T03:13:12.136Z,0
2017-09-26T03:13:52.687Z,0
2017-09-26T03:14:33.250Z,0
2017-09-26T03:15:13.812Z,0
2017-09-26T03:15:54.370Z,0
2017-09-26T03:16:34.933Z,0
2017-09-26T03:17:15.508Z,0
2017-09-26T03:17:56.067Z,0
2017-09-26T03:18:36.685Z,0
2017-09-26T03:19:17.216Z,0
2017-09-26T03:19:57.793Z,0
2017-09-26T03:20:38.353Z,0
2017-09-26T03:21:18.927Z,0
2017-09-26T03:21:59.485Z,0
2017-09-26T03:22:40.052Z,0
2017-09-26T03:23:20.624Z,0
2017-09-26T03:24:01.178Z,0
2017-09-26T03:24:41.742Z,0
2017-09-26T03:25:22.302Z,0
2017-09-26T03:26:02.868Z,0
2017-09-26T03:26:43.430Z,0
2017-09-26T03:27:24.002Z,0
2017-09-26T03:28:04.570Z,0
2017-09-26T03:28:45.141Z,0
2017-09-26T03:29:25.703Z,0
2017-09-26T03:30:06.265Z,0
2017-09-26T03:30:46.851Z,0
2017-09-26T03:31:27.407Z,0
2017-09-26T03:32:07.978Z,0
2017-09-26T03:32:48.529Z,0
2017-09-26T03:33:29.092Z,0
2017-09-26T03:34:09.660Z,0
2017-09-26T03:34:50.219Z,0
2017-09-26T03:35:30.776Z,0
2017-09-26T03:36:11.341Z,0
2017-09-26T03:36:51.917Z,0
2017-09-26T03:37:32.494Z,0
2017-09-26T03:38:13.059Z,0
2017-09-26T03:38:53.626Z,0
2017-09-26T03:39:36.761Z,0
2017-09-26T03:40:17.352Z,0
2017-09-26T03:40:57.924Z,0
2017-09-26T03:41:38.484Z,0
2017-09-26T03:42:19.039Z,0
2017-09-26T03:42:59.609Z,0
2017-09-26T03:43:40.166Z,0
2017-09-26T03:44:20.753Z,0
2017-09-26T03:45:01.327Z,0
2017-09-26T03:45:41.904Z,0
2017-09-26T03:46:22.464Z,0
2017-09-26T03:47:03.022Z,0
2017-09-26T03:47:43.600Z,0
2017-09-26T03:48:24.171Z,0
2017-09-26T03:49:04.737Z,0
2017-09-26T03:49:45.307Z,0
2017-09-26T03:50:25.897Z,0
2017-09-26T03:51:06.469Z,0
2017-09-26T03:51:47.042Z,0
2017-09-26T03:52:27.610Z,0
2017-09-26T03:53:08.182Z,0
2017-09-26T03:53:48.726Z,0
2017-09-26T03:54:29.290Z,0
2017-09-26T03:55:09.851Z,0
2017-09-26T03:55:50.429Z,0
2017-09-26T03:56:30.996Z,0
2017-09-26T03:57:11.562Z,0
2017-09-26T03:57:52.140Z,0
2017-09-26T03:58:32.692Z,0
2017-09-26T03:59:13.267Z,0
2017-09-26T03:59:53.848Z,0
2017-09-26T04:00:34.438Z,0
2017-09-26T04:01:14.999Z,0
2017-09-26T04:01:55.585Z,0
2017-09-26T04:02:36.152Z,0
2017-09-26T04:03:16.720Z,0
2017-09-26T04:03:57.281Z,0
2017-09-26T04:04:37.852Z,0
2017-09-26T04:05:18.416Z,0
2017-09-26T04:05:58.994Z,0
2017-09-26T04:06:39.560Z,0
2017-09-26T04:07:20.140Z,0
2017-09-26T04:08:00.700Z,0
2017-09-26T04:08:41.249Z,0
2017-09-26T04:09:21.821Z,0
2017-09-26T04:10:02.379Z,0
2017-09-26T04:10:42.963Z,0
2017-09-26T04:11:23.509Z,0
2017-09-26T04:12:04.086Z,0
2017-09-26T04:12:44.656Z,0
2017-09-26T04:13:25.238Z,0
2017-09-26T04:14:05.835Z,0
2017-09-26T04:14:46.453Z,0
2017-09-26T04:15:27.051Z,0
2017-09-26T04:16:07.637Z,0
2017-09-26T04:16:48.242Z,0
2017-09-26T04:17:28.852Z,0
2017-09-26T04:18:09.420Z,0
2017-09-26T04:18:50.050Z,0
2017-09-26T04:19:30.641Z,0
2017-09-26T04:20:11.164Z,0
2017-09-26T04:20:51.766Z,0
2017-09-26T04:21:32.407Z,0
2017-09-26T04:22:12.969Z,0
2017-09-26T04:22:53.552Z,0
2017-09-26T04:23:34.129Z,0
2017-09-26T04:24:14.710Z,0
2017-09-26T04:24:55.313Z,0
2017-09-26T04:25:35.951Z,0
2017-09-26T04:26:16.507Z,0
2017-09-26T04:26:57.082Z,0
2017-09-26T04:27:37.689Z,0
2017-09-26T04:28:18.272Z,0
2017-09-26T04:28:58.876Z,0
2017-09-26T04:29:39.490Z,0
2017-09-26T04:30:20.064Z,0
2017-09-26T04:31:00.671Z,0
2017-09-26T04:31:41.249Z,0
2017-09-26T04:32:21.838Z,0
2017-09-26T04:33:02.437Z,0
2017-09-26T04:33:43.033Z,0
2017-09-26T04:34:23.601Z,0
2017-09-26T04:35:04.168Z,0
2017-09-26T04:35:44.805Z,0
2017-09-26T04:36:25.430Z,0
2017-09-26T04:37:06.014Z,4
2017-09-26T04:37:46.580Z,0
2017-09-26T04:38:27.208Z,4
2017-09-26T04:39:07.780Z,4
2017-09-26T04:39:48.360Z,4
2017-09-26T04:40:28.930Z,0
2017-09-26T04:41:09.510Z,4
2017-09-26T04:41:50.089Z,4
2017-09-26T04:42:30.664Z,4
2017-09-26T04:43:11.254Z,4
2017-09-26T04:43:51.893Z,8
2017-09-26T04:44:32.458Z,4
2017-09-26T04:45:13.035Z,8
2017-09-26T04:45:53.633Z,8
2017-09-26T04:46:34.207Z,8
2017-09-26T04:47:14.778Z,8
2017-09-26T04:47:55.356Z,8
2017-09-26T04:48:35.941Z,8
2017-09-26T04:49:16.507Z,12
2017-09-26T04:49:57.086Z,8
2017-09-26T04:50:37.656Z,8
2017-09-26T04:51:18.262Z,12
2017-09-26T04:51:58.822Z,16
2017-09-26T04:52:39.396Z,16
2017-09-26T04:53:19.978Z,16
2017-09-26T04:54:00.552Z,16
2017-09-26T04:54:41.120Z,16
2017-09-26T04:55:21.769Z,20
2017-09-26T04:56:02.301Z,16
2017-09-26T04:56:42.890Z,20
2017-09-26T04:57:23.460Z,20
2017-09-26T04:58:04.042Z,28
2017-09-26T04:58:44.614Z,32
2017-09-26T04:59:25.181Z,28
2017-09-26T05:00:05.770Z,32
2017-09-26T05:00:46.341Z,36
2017-09-26T05:01:26.934Z,44
2017-09-26T05:02:07.496Z,48
2017-09-26T05:02:48.057Z,68
2017-09-26T05:03:28.612Z,76
2017-09-26T05:04:09.181Z,84
2017-09-26T05:04:49.764Z,84
2017-09-26T05:05:30.325Z,88
2017-09-26T05:06:10.905Z,100
2017-09-26T05:06:51.479Z,100
2017-09-26T05:07:32.044Z,104
2017-09-26T05:08:12.618Z,136
2017-09-26T05:08:53.203Z,108
2017-09-26T05:09:33.762Z,112
2017-09-26T05:10:14.329Z,108
2017-09-26T05:10:54.885Z,108
2017-09-26T05:11:35.444Z,120
2017-09-26T05:12:16.021Z,132
2017-09-26T05:12:56.604Z,132
2017-09-26T05:13:37.158Z,128
2017-09-26T05:14:17.713Z,136
2017-09-26T05:14:58.271Z,136
2017-09-26T05:15:38.841Z,144
2017-09-26T05:16:19.403Z,148
2017-09-26T05:16:59.960Z,152
2017-09-26T05:17:40.514Z,156
2017-09-26T05:18:21.080Z,156
2017-09-26T05:19:01.645Z,160
2017-09-26T05:19:42.211Z,176
2017-09-26T05:20:22.781Z,188
2017-09-26T05:21:03.339Z,196
2017-09-26T05:21:43.894Z,188
2017-09-26T05:22:24.463Z,192
2017-09-26T05:23:05.021Z,200
2017-09-26T05:23:45.583Z,200
2017-09-26T05:24:26.170Z,196
2017-09-26T05:25:06.756Z,192
2017-09-26T05:25:47.363Z,184
2017-09-26T05:26:27.925Z,188
2017-09-26T05:27:08.491Z,192
2017-09-26T05:27:49.066Z,196
2017-09-26T05:28:29.621Z,216
2017-09-26T05:29:10.385Z,224
2017-09-26T05:29:50.977Z,240
2017-09-26T05:30:31.558Z,252
2017-09-26T05:31:12.120Z,260
2017-09-26T05:31:52.690Z,252
2017-09-26T05:32:33.303Z,244
2017-09-26T05:33:13.868Z,264
2017-09-26T05:33:54.446Z,256
2017-09-26T05:34:35.009Z,260
2017-09-26T05:35:15.565Z,256
2017-09-26T05:35:56.127Z,260
2017-09-26T05:36:36.732Z,252
2017-09-26T05:37:17.287Z,260
2017-09-26T05:37:57.863Z,260
2017-09-26T05:38:38.502Z,272
2017-09-26T05:39:19.083Z,292
2017-09-26T05:39:59.717Z,308
2017-09-26T05:40:40.406Z,316
2017-09-26T05:41:21.037Z,336
2017-09-26T05:42:01.597Z,352
2017-09-26T05:42:42.161Z,380
2017-09-26T05:43:22.737Z,404
2017-09-26T05:44:03.393Z,464
2017-09-26T05:44:43.964Z,520
2017-09-26T05:45:24.522Z,492
2017-09-26T05:46:05.098Z,520
2017-09-26T05:46:45.677Z,428
2017-09-26T05:47:26.241Z,396
2017-09-26T05:48:06.807Z,512
2017-09-26T05:48:47.367Z,496
2017-09-26T05:49:27.939Z,452
2017-09-26T05:50:08.497Z,492
2017-09-26T05:50:49.089Z,496
2017-09-26T05:51:29.652Z,476
2017-09-26T05:52:10.222Z,464
2017-09-26T05:52:50.806Z,448
2017-09-26T05:53:31.370Z,424
2017-09-26T05:54:11.934Z,412
2017-09-26T05:54:52.511Z,440
2017-09-26T05:55:33.093Z,440
2017-09-26T05:56:13.647Z,476
2017-09-26T05:56:54.266Z,452
2017-09-26T05:57:34.829Z,436
2017-09-26T05:58:15.381Z,460
2017-09-26T05:58:55.967Z,444
2017-09-26T05:59:36.564Z,500
2017-09-26T06:00:17.152Z,620
2017-09-26T06:00:57.717Z,524
2017-09-26T06:01:38.276Z,452
2017-09-26T06:02:18.841Z,444
2017-09-26T06:02:59.392Z,480
2017-09-26T06:03:39.948Z,540
2017-09-26T06:04:20.511Z,532
2017-09-26T06:05:01.077Z,496
2017-09-26T06:05:41.638Z,544
2017-09-26T06:06:22.195Z,576
2017-09-26T06:07:02.776Z,456
2017-09-26T06:07:43.336Z,444
2017-09-26T06:08:23.906Z,456
2017-09-26T06:09:04.469Z,452
2017-09-26T06:09:45.030Z,448
2017-09-26T06:10:25.602Z,404
2017-09-26T06:11:06.149Z,400
2017-09-26T06:11:46.712Z,416
2017-09-26T06:12:27.276Z,424
2017-09-26T06:13:07.844Z,408
2017-09-26T06:13:48.394Z,404
2017-09-26T06:14:28.960Z,408
2017-09-26T06:15:09.561Z,416
2017-09-26T06:15:50.127Z,428
2017-09-26T06:16:30.688Z,444
2017-09-26T06:17:11.239Z,436
2017-09-26T06:17:51.801Z,460
2017-09-26T06:18:32.377Z,472
2017-09-26T06:19:12.933Z,480
2017-09-26T06:19:53.507Z,496
2017-09-26T06:20:34.067Z,520
2017-09-26T06:21:14.631Z,516
2017-09-26T06:21:55.196Z,536
2017-09-26T06:22:35.764Z,564
2017-09-26T06:23:16.330Z,528
2017-09-26T06:23:56.905Z,548
2017-09-26T06:24:37.481Z,584
2017-09-26T06:25:18.043Z,604
2017-09-26T06:25:58.623Z,640
2017-09-26T06:26:39.203Z,608
2017-09-26T06:27:19.764Z,580
2017-09-26T06:28:00.335Z,592
2017-09-26T06:28:40.925Z,628
2017-09-26T06:29:21.482Z,640
2017-09-26T06:30:02.054Z,652
2017-09-26T06:30:42.628Z,672
2017-09-26T06:31:23.201Z,860
2017-09-26T06:32:03.764Z,856
2017-09-26T06:32:44.328Z,880
2017-09-26T06:33:24.889Z,1072
2017-09-26T06:34:05.455Z,972
2017-09-26T06:34:46.015Z,940
2017-09-26T06:35:26.580Z,1132
2017-09-26T06:36:07.151Z,1300
2017-09-26T06:36:47.746Z,1348
2017-09-26T06:37:28.309Z,1080
2017-09-26T06:38:08.866Z,1004
2017-09-26T06:38:49.453Z,1284
2017-09-26T06:39:30.037Z,1444
2017-09-26T06:40:10.598Z,1260
2017-09-26T06:40:51.166Z,1164
2017-09-26T06:41:31.730Z,1148
2017-09-26T06:42:12.288Z,1188
2017-09-26T06:42:52.850Z,1428
2017-09-26T06:43:33.416Z,1140
2017-09-26T06:44:13.978Z,1084
2017-09-26T06:44:54.551Z,1052
2017-09-26T06:45:35.123Z,1068
2017-09-26T06:46:15.693Z,1192
2017-09-26T06:46:56.272Z,1312
2017-09-26T06:47:36.849Z,1400
2017-09-26T06:48:17.436Z,1664
2017-09-26T06:48:58.018Z,1272
2017-09-26T06:49:38.579Z,1120
2017-09-26T06:50:19.159Z,1144
2017-09-26T06:50:59.721Z,1204
2017-09-26T06:51:40.291Z,1208
2017-09-26T06:52:20.849Z,1096
2017-09-26T06:53:01.456Z,1080
2017-09-26T06:53:42.000Z,1120
2017-09-26T06:54:22.594Z,1340
2017-09-26T06:55:03.214Z,1820
2017-09-26T06:55:43.772Z,1584
2017-09-26T06:56:24.344Z,1512
2017-09-26T06:57:04.903Z,1512
2017-09-26T06:57:45.491Z,1412
2017-09-26T06:58:26.045Z,1292
2017-09-26T06:59:06.611Z,1272
2017-09-26T06:59:47.202Z,1428
2017-09-26T07:00:27.772Z,1576
2017-09-26T07:01:08.335Z,1428
2017-09-26T07:01:48.936Z,1376
2017-09-26T07:02:29.508Z,1432
2017-09-26T07:03:10.083Z,1472
2017-09-26T07:03:50.668Z,1596
2017-09-26T07:04:31.234Z,1652
2017-09-26T07:05:11.813Z,1812
2017-09-26T07:05:52.379Z,1608
2017-09-26T07:06:32.946Z,1788
2017-09-26T07:07:13.519Z,2168
2017-09-26T07:07:54.090Z,2432
2017-09-26T07:08:34.663Z,2364
2017-09-26T07:09:15.253Z,2520
2017-09-26T07:09:55.846Z,2780
2017-09-26T07:10:36.412Z,2204
2017-09-26T07:11:16.987Z,1968
2017-09-26T07:11:57.558Z,1696
2017-09-26T07:12:38.126Z,1496
2017-09-26T07:13:18.704Z,1432
2017-09-26T07:13:59.277Z,1460
2017-09-26T07:14:39.841Z,1448
2017-09-26T07:15:20.403Z,1432
2017-09-26T07:16:00.987Z,1484
2017-09-26T07:16:41.556Z,1572
2017-09-26T07:17:22.164Z,1456
2017-09-26T07:18:02.734Z,1272
2017-09-26T07:18:43.299Z,1216
2017-09-26T07:19:23.882Z,1320
2017-09-26T07:20:04.438Z,1200
2017-09-26T07:20:45.070Z,1108
2017-09-26T07:21:25.651Z,1120
2017-09-26T07:22:06.337Z,1124
2017-09-26T07:22:46.905Z,1220
2017-09-26T07:23:27.485Z,1292
2017-09-26T07:24:08.048Z,1168
2017-09-26T07:24:48.661Z,1004
2017-09-26T07:25:29.214Z,908
2017-09-26T07:26:09.836Z,904
2017-09-26T07:26:50.472Z,872
2017-09-26T07:27:31.044Z,824
2017-09-26T07:28:11.624Z,768
2017-09-26T07:28:52.186Z,756
2017-09-26T07:29:32.771Z,768
2017-09-26T07:30:13.349Z,828
2017-09-26T07:30:53.911Z,836
2017-09-26T07:31:34.476Z,760
2017-09-26T07:32:15.046Z,796
2017-09-26T07:32:55.608Z,852
2017-09-26T07:33:36.190Z,764
2017-09-26T07:34:16.753Z,784
2017-09-26T07:34:57.321Z,828
2017-09-26T07:35:37.885Z,920
2017-09-26T07:36:18.454Z,944
2017-09-26T07:36:59.014Z,1020
2017-09-26T07:37:39.578Z,1036
2017-09-26T07:38:20.137Z,1020
2017-09-26T07:39:00.700Z,1100
2017-09-26T07:39:41.275Z,1080
2017-09-26T07:40:21.860Z,1052
2017-09-26T07:41:02.435Z,1112
2017-09-26T07:41:43.000Z,1172
2017-09-26T07:42:23.658Z,1216
2017-09-26T07:43:04.227Z,1304
2017-09-26T07:43:44.794Z,1412
2017-09-26T07:44:25.394Z,1524
2017-09-26T07:45:05.963Z,1592
2017-09-26T07:45:46.536Z,1644
2017-09-26T07:46:27.140Z,1784
2017-09-26T07:47:07.713Z,1864
2017-09-26T07:47:48.285Z,1816
2017-09-26T07:48:28.851Z,1900
2017-09-26T07:49:09.422Z,2332
2017-09-26T07:49:49.978Z,2732
2017-09-26T07:50:30.553Z,2448
2017-09-26T07:51:11.582Z,2296
2017-09-26T07:51:52.151Z,2372
2017-09-26T07:52:32.715Z,2252
2017-09-26T07:53:13.280Z,2120
2017-09-26T07:53:53.846Z,2268
2017-09-26T07:54:34.638Z,2448
2017-09-26T07:55:15.494Z,2504
2017-09-26T07:55:56.062Z,2540
2017-09-26T07:56:36.652Z,2524
2017-09-26T07:57:17.216Z,2532
2017-09-26T07:57:58.030Z,1912
2017-09-26T07:58:38.606Z,1764
2017-09-26T07:59:19.175Z,1908
2017-09-26T07:59:59.740Z,1968
2017-09-26T08:00:40.321Z,2088
2017-09-26T08:01:20.892Z,2000
2017-09-26T08:02:01.484Z,2020
2017-09-26T08:02:42.038Z,2080
2017-09-26T08:03:22.604Z,2312
2017-09-26T08:04:03.167Z,2548
2017-09-26T08:04:43.740Z,2604
2017-09-26T08:05:24.319Z,2424
2017-09-26T08:06:04.894Z,2180
2017-09-26T08:06:45.453Z,2028
2017-09-26T08:07:26.022Z,1984
2017-09-26T08:08:06.577Z,1884
2017-09-26T08:08:47.143Z,1836
2017-09-26T08:09:27.713Z,1840
2017-09-26T08:10:08.286Z,1796
2017-09-26T08:10:48.850Z,1784
2017-09-26T08:11:29.419Z,1824
2017-09-26T08:12:09.989Z,1796
2017-09-26T08:12:50.564Z,1816
2017-09-26T08:13:31.139Z,1820
2017-09-26T08:14:11.698Z,1792
2017-09-26T08:14:52.253Z,1812
2017-09-26T08:15:32.815Z,1988
2017-09-26T08:16:13.383Z,1988
2017-09-26T08:16:53.955Z,1936
2017-09-26T08:17:34.510Z,1916
2017-09-26T08:18:15.072Z,1896
2017-09-26T08:18:55.640Z,1920
2017-09-26T08:19:36.221Z,2012
2017-09-26T08:20:16.787Z,2320
2017-09-26T08:20:57.353Z,2800
2017-09-26T08:21:37.930Z,3540
2017-09-26T08:22:18.499Z,4124
2017-09-26T08:22:59.080Z,4640
2017-09-26T08:23:39.651Z,4872
2017-09-26T08:24:20.228Z,4752
2017-09-26T08:25:00.789Z,5520
2017-09-26T08:25:41.352Z,5448
2017-09-26T08:26:21.916Z,5396
2017-09-26T08:27:02.496Z,5636
2017-09-26T08:27:43.106Z,5872
2017-09-26T08:28:23.652Z,4752
2017-09-26T08:29:04.221Z,4512
2017-09-26T08:29:44.794Z,4268
2017-09-26T08:30:25.363Z,4416
2017-09-26T08:31:05.956Z,4524
2017-09-26T08:31:46.515Z,4824
2017-09-26T08:32:27.075Z,5360
2017-09-26T08:33:07.650Z,5280
2017-09-26T08:33:48.206Z,4768
2017-09-26T08:34:28.776Z,4928
2017-09-26T08:35:09.355Z,5216
2017-09-26T08:35:49.924Z,5212
2017-09-26T08:36:30.483Z,5092
2017-09-26T08:37:11.045Z,4268
2017-09-26T08:37:51.613Z,3916
2017-09-26T08:38:32.188Z,3448
2017-09-26T08:39:12.758Z,3372
2017-09-26T08:39:53.332Z,3520
2017-09-26T08:40:33.909Z,3548
2017-09-26T08:41:14.470Z,3624
2017-09-26T08:41:55.043Z,3656
2017-09-26T08:42:35.612Z,3528
2017-09-26T08:43:16.172Z,3404
2017-09-26T08:43:56.732Z,3292
2017-09-26T08:44:37.306Z,3240
2017-09-26T08:45:17.863Z,3312
2017-09-26T08:45:58.437Z,3420
2017-09-26T08:46:39.017Z,3584
2017-09-26T08:47:19.589Z,3760
2017-09-26T08:48:00.160Z,3800
2017-09-26T08:48:40.726Z,3608
2017-09-26T08:49:21.340Z,3588
2017-09-26T08:50:01.920Z,3484
2017-09-26T08:50:42.516Z,3616
2017-09-26T08:51:23.093Z,3648
2017-09-26T08:52:03.659Z,3472
2017-09-26T08:52:44.254Z,3540
2017-09-26T08:53:24.819Z,3524
2017-09-26T08:54:05.380Z,3468
2017-09-26T08:54:45.942Z,3692
2017-09-26T08:55:26.527Z,3796
2017-09-26T08:56:07.095Z,4036
2017-09-26T08:56:47.668Z,4320
2017-09-26T08:57:28.232Z,4384
2017-09-26T08:58:08.797Z,4172
2017-09-26T08:58:49.356Z,3904
2017-09-26T08:59:29.923Z,3728
2017-09-26T09:00:10.489Z,3652
2017-09-26T09:00:51.050Z,3532
2017-09-26T09:01:31.614Z,3420
2017-09-26T09:02:12.210Z,3672
2017-09-26T09:02:52.784Z,3952
2017-09-26T09:03:33.344Z,3968
2017-09-26T09:04:13.910Z,3408
2017-09-26T09:04:54.476Z,3312
2017-09-26T09:05:35.074Z,3568
2017-09-26T09:06:15.646Z,3492
2017-09-26T09:06:56.235Z,3416
2017-09-26T09:07:36.810Z,3376
2017-09-26T09:08:17.381Z,3576
2017-09-26T09:08:57.945Z,3928
2017-09-26T09:09:38.500Z,4184
2017-09-26T09:10:19.075Z,4300
2017-09-26T09:10:59.639Z,4148
2017-09-26T09:11:40.208Z,4260
2017-09-26T09:12:20.827Z,4452
2017-09-26T09:13:01.411Z,4516
2017-09-26T09:13:41.987Z,4704
2017-09-26T09:14:22.552Z,5012
2017-09-26T09:15:03.111Z,4924
2017-09-26T09:15:43.677Z,4652
2017-09-26T09:16:24.261Z,4996
2017-09-26T09:17:04.838Z,5144
2017-09-26T09:17:45.400Z,5044
2017-09-26T09:18:25.958Z,4648
2017-09-26T09:19:06.541Z,4544
2017-09-26T09:19:47.123Z,4640
2017-09-26T09:20:27.717Z,5160
2017-09-26T09:21:08.291Z,5968
2017-09-26T09:21:48.868Z,5808
2017-09-26T09:22:29.445Z,6132
2017-09-26T09:23:10.034Z,6420
2017-09-26T09:23:50.615Z,6676
2017-09-26T09:24:31.169Z,6000
2017-09-26T09:25:11.723Z,5928
2017-09-26T09:25:52.292Z,5920
2017-09-26T09:26:32.875Z,5988
2017-09-26T09:27:13.440Z,5992
2017-09-26T09:27:54.035Z,5452
2017-09-26T09:28:34.608Z,5776
2017-09-26T09:29:15.211Z,6888
2017-09-26T09:29:55.777Z,7008
2017-09-26T09:30:36.339Z,6564
2017-09-26T09:31:16.896Z,6720
2017-09-26T09:31:57.454Z,6776
2017-09-26T09:32:38.036Z,7252
2017-09-26T09:33:18.627Z,7696